Time;durP1;ratioP1;P1;durP2;ratioP2;P2;SDS_P1;SDS_P2;PMS_P1;PMS_P2;Temp;Humidity;BMP_temperature;BMP_pressure;BME280_temperature;BME280_humidity;BME280_pressure;Samples;Min_cycle;Max_cycle;Signal;HPM_P1;HPM_P2
2023/03/10 00:00:48;;;;;;;45.72;10.45;;;14.40;99.90;;;;;;5019307;28;20132;-93
2023/03/10 00:03:15;;;;;;;45.38;10.00;;;14.30;99.90;;;;;;5013733;28;20034;-92
2023/03/10 00:05:42;;;;;;;50.83;12.20;;;14.30;99.90;;;;;;4997211;28;20149;-93
2023/03/10 00:12:51;;;;;;;;;;;;;;;;;;;;;
2023/03/10 00:15:57;;;;;;;55.60;10.68;;;14.40;99.90;;;;;;4879774;29;20057;-94
2023/03/10 00:18:51;;;;;;;;;;;;;;;;;;;;;
2023/03/10 00:21:35;;;;;;;43.17;9.90;;;14.40;99.90;;;;;;4824912;29;20046;-94
2023/03/10 00:24:02;;;;;;;58.20;10.63;;;14.40;99.90;;;;;;4808714;29;20074;-93
2023/03/10 00:26:29;;;;;;;52.63;10.57;;;14.40;99.90;;;;;;4823961;29;20130;-93
2023/03/10 00:28:55;;;;;;;46.03;9.85;;;14.40;99.90;;;;;;4825716;29;20038;-92
2023/03/10 00:31:25;;;;;;;43.95;9.85;;;14.40;99.90;;;;;;4847575;29;20090;-92
2023/03/10 00:33:55;;;;;;;45.88;9.50;;;14.40;99.90;;;;;;4862968;29;20042;-93
2023/03/10 00:39:21;;;;;;;46.75;10.05;;;14.40;99.90;;;;;;4849250;29;20050;-92
2023/03/10 00:41:51;;;;;;;45.25;9.85;;;14.50;99.90;;;;;;4845644;29;20669;-93
2023/03/10 00:44:24;;;;;;;36.30;9.35;;;14.50;99.90;;;;;;4830335;29;20066;-93
2023/03/10 00:47:03;;;;;;;33.75;9.38;;;14.40;99.90;;;;;;4837286;29;20061;-91
2023/03/10 00:49:33;;;;;;;43.42;9.18;;;14.40;99.90;;;;;;4931628;29;20106;-93
2023/03/10 00:52:11;;;;;;;47.75;9.75;;;14.40;99.90;;;;;;4924365;29;20035;-93
2023/03/10 00:54:50;;;;;;;48.72;9.07;;;14.50;99.90;;;;;;4939152;28;20067;-93
2023/03/10 00:57:37;;;;;;;49.85;9.75;;;14.50;99.90;;;;;;4962499;28;20535;-93
2023/03/10 01:00:19;;;;;;;38.05;9.25;;;14.50;99.90;;;;;;4961444;28;20042;-93
2023/03/10 01:02:52;;;;;;;40.33;11.68;;;14.50;99.90;;;;;;4947107;28;20034;-93
2023/03/10 01:05:22;;;;;;;52.10;10.23;;;14.50;99.90;;;;;;4962629;28;20089;-93
2023/03/10 01:07:54;;;;;;;58.60;11.07;;;14.50;99.90;;;;;;4945695;28;20039;-92
2023/03/10 01:10:29;;;;;;;40.20;9.40;;;14.50;99.90;;;;;;4981500;28;20026;-93
2023/03/10 01:13:02;;;;;;;55.70;10.43;;;14.50;99.90;;;;;;4981765;28;20034;-94
2023/03/10 01:15:32;;;;;;;46.58;11.45;;;14.50;99.90;;;;;;4982243;28;20040;-92
2023/03/10 01:18:02;;;;;;;41.88;10.43;;;14.50;99.90;;;;;;4980931;28;20038;-92
2023/03/10 01:20:31;;;;;;;56.15;10.60;;;14.50;99.90;;;;;;4980750;28;20030;-93
2023/03/10 01:22:58;;;;;;;51.17;9.73;;;14.40;99.90;;;;;;4981025;28;20030;-92
2023/03/10 01:25:26;;;;;;;47.72;9.82;;;14.50;99.90;;;;;;4980831;28;20518;-93
2023/03/10 01:27:53;;;;;;;44.05;9.77;;;14.50;99.90;;;;;;4981049;28;20018;-91
2023/03/10 01:30:20;;;;;;;39.58;10.50;;;14.40;99.90;;;;;;4980803;28;20073;-94
2023/03/10 01:32:46;;;;;;;41.10;8.63;;;14.50;99.90;;;;;;4980969;28;20034;-92
2023/03/10 01:35:14;;;;;;;42.55;9.20;;;14.50;99.90;;;;;;4980561;28;20065;-91
2023/03/10 01:37:43;;;;;;;45.40;10.27;;;14.40;99.90;;;;;;4981503;28;20026;-93
2023/03/10 01:40:15;;;;;;;43.63;9.57;;;14.40;99.90;;;;;;4987177;28;20046;-92
2023/03/10 01:43:02;;;;;;;48.47;9.38;;;14.50;99.90;;;;;;4997198;28;20503;-92
2023/03/10 01:45:31;;;;;;;51.40;9.65;;;14.40;99.90;;;;;;4997323;28;20062;-91
2023/03/10 01:47:58;;;;;;;34.85;9.57;;;14.50;99.90;;;;;;4980220;28;20136;-92
2023/03/10 01:50:25;;;;;;;52.92;10.18;;;14.50;99.90;;;;;;4996145;28;20033;-93
2023/03/10 01:52:57;;;;;;;46.85;9.60;;;14.50;99.90;;;;;;4996016;28;20484;-91
2023/03/10 01:55:30;;;;;;;44.58;9.27;;;14.50;99.90;;;;;;4996065;28;20038;-92
2023/03/10 01:57:57;;;;;;;46.13;10.27;;;14.50;99.90;;;;;;4996433;28;20030;-91
2023/03/10 02:00:28;;;;;;;49.90;10.20;;;14.50;99.90;;;;;;4996278;28;20438;-92
2023/03/10 02:03:06;;;;;;;35.40;9.93;;;14.40;99.90;;;;;;4995411;28;20046;-93
2023/03/10 02:05:40;;;;;;;35.88;9.30;;;14.50;99.90;;;;;;4980050;28;20065;-91
2023/03/10 02:08:09;;;;;;;41.05;9.75;;;14.40;99.90;;;;;;4996340;28;20038;-92
2023/03/10 02:10:36;;;;;;;36.17;8.82;;;14.40;99.90;;;;;;4995982;28;20049;-92
2023/03/10 02:13:03;;;;;;;49.65;10.57;;;14.40;99.90;;;;;;4995509;28;20054;-91
2023/03/10 02:15:32;;;;;;;36.42;9.77;;;14.40;99.90;;;;;;4995515;28;20042;-90
2023/03/10 02:18:01;;;;;;;43.03;9.70;;;14.40;99.90;;;;;;4995567;28;20022;-91
2023/03/10 02:20:55;;;;;;;43.15;9.60;;;14.50;99.90;;;;;;4995504;28;20037;-92
2023/03/10 02:23:42;;;;;;;35.55;8.52;;;14.40;99.90;;;;;;4979552;28;20057;-91
2023/03/10 02:26:38;;;;;;;37.83;9.57;;;14.50;99.90;;;;;;4996496;28;20053;-92
2023/03/10 02:29:12;;;;;;;35.47;9.80;;;14.50;99.90;;;;;;4995234;28;20041;-91
2023/03/10 02:31:39;;;;;;;40.72;10.10;;;14.40;99.90;;;;;;4995439;28;20105;-90
2023/03/10 02:34:06;;;;;;;47.20;9.63;;;14.50;99.90;;;;;;4995119;28;20119;-91
2023/03/10 02:36:36;;;;;;;46.15;10.65;;;14.40;99.90;;;;;;4995170;28;20030;-93
2023/03/10 02:39:03;;;;;;;37.22;10.60;;;14.40;99.90;;;;;;4995255;28;20030;-91
2023/03/10 02:41:35;;;;;;;47.47;12.82;;;14.40;99.90;;;;;;4998642;28;20042;-92
2023/03/10 02:44:11;;;;;;;63.58;11.65;;;14.50;99.90;;;;;;5014564;28;20503;-91
2023/03/10 02:46:37;;;;;;;43.13;10.68;;;14.40;99.90;;;;;;4998387;28;20041;-93
2023/03/10 02:49:09;;;;;;;49.28;10.65;;;14.40;99.90;;;;;;4998438;28;20077;-93
2023/03/10 02:51:45;;;;;;;51.13;11.60;;;14.50;99.90;;;;;;4994593;28;20033;-92
2023/03/10 02:54:16;;;;;;;49.08;9.77;;;14.40;99.90;;;;;;4978482;28;20038;-91
2023/03/10 02:56:44;;;;;;;43.05;9.18;;;14.40;99.90;;;;;;4978706;28;20031;-94
2023/03/10 02:59:11;;;;;;;32.58;10.40;;;14.50;99.90;;;;;;4978961;28;20112;-92
2023/03/10 03:01:44;;;;;;;41.08;10.15;;;14.50;99.90;;;;;;4979023;28;20387;-93
2023/03/10 03:04:10;;;;;;;50.45;9.77;;;14.40;99.90;;;;;;4995072;28;20365;-94
2023/03/10 03:06:39;;;;;;;64.90;11.27;;;14.40;99.90;;;;;;4978781;28;20030;-93
2023/03/10 03:09:05;;;;;;;48.08;8.98;;;14.40;99.90;;;;;;4978731;28;20475;-94
2023/03/10 03:11:32;;;;;;;46.95;9.82;;;14.40;99.90;;;;;;4978981;28;20562;-92
2023/03/10 03:13:58;;;;;;;39.05;9.60;;;14.40;99.90;;;;;;4978870;28;20066;-93
2023/03/10 03:16:25;;;;;;;38.75;10.15;;;14.40;99.90;;;;;;4977953;28;20036;-91
2023/03/10 03:18:57;;;;;;;54.05;10.23;;;14.40;99.90;;;;;;4978872;28;20034;-93
2023/03/10 03:21:24;;;;;;;33.22;9.82;;;14.50;99.90;;;;;;4979917;28;20439;-94
2023/03/10 03:23:53;;;;;;;46.90;9.40;;;14.40;99.90;;;;;;4978956;28;20117;-93
2023/03/10 03:26:24;;;;;;;47.72;10.05;;;14.50;99.90;;;;;;4978918;28;20026;-93
2023/03/10 03:28:56;;;;;;;42.15;9.90;;;14.50;99.90;;;;;;4990567;28;20461;-93
2023/03/10 03:31:27;;;;;;;52.50;9.00;;;14.40;99.90;;;;;;4997915;28;20048;-93
2023/03/10 03:34:16;;;;;;;44.92;9.52;;;14.50;99.90;;;;;;5001286;28;20046;-94
2023/03/10 03:36:45;;;;;;;45.92;9.45;;;14.40;99.90;;;;;;4997980;28;20054;-95
2023/03/10 03:39:16;;;;;;;41.70;8.05;;;14.40;99.90;;;;;;4998033;28;20030;-93
2023/03/10 03:41:45;;;;;;;34.03;8.85;;;14.40;99.90;;;;;;4997622;28;20117;-94
2023/03/10 03:44:12;;;;;;;41.83;8.20;;;14.40;99.90;;;;;;4997617;28;20112;-93
2023/03/10 03:46:38;;;;;;;40.22;8.90;;;14.40;99.90;;;;;;4997592;28;20034;-93
2023/03/10 03:49:05;;;;;;;50.60;8.55;;;14.40;99.90;;;;;;4997480;28;20021;-93
2023/03/10 03:51:35;;;;;;;36.60;8.32;;;14.40;99.90;;;;;;4997349;28;20092;-93
2023/03/10 03:54:02;;;;;;;36.08;8.07;;;14.40;99.90;;;;;;5014202;28;20052;-92
2023/03/10 03:56:32;;;;;;;36.42;8.18;;;14.40;99.90;;;;;;4999069;28;20479;-93
2023/03/10 03:58:59;;;;;;;46.17;7.10;;;14.40;99.90;;;;;;4997368;28;20025;-93
2023/03/10 04:01:27;;;;;;;42.50;8.88;;;14.40;99.90;;;;;;4981092;28;20112;-94
2023/03/10 04:03:55;;;;;;;40.90;8.23;;;14.30;99.90;;;;;;4997029;28;20161;-93
2023/03/10 04:06:22;;;;;;;39.05;7.75;;;14.40;99.90;;;;;;4997103;28;20018;-93
2023/03/10 04:08:49;;;;;;;42.47;8.05;;;14.40;99.90;;;;;;4997284;28;20033;-95
2023/03/10 04:11:25;;;;;;;46.85;8.35;;;14.40;99.90;;;;;;4996916;28;20535;-93
2023/03/10 04:13:52;;;;;;;45.15;8.65;;;14.30;99.90;;;;;;4996950;28;20137;-93
2023/03/10 04:16:19;;;;;;;42.70;8.75;;;14.30;99.90;;;;;;4997218;28;20541;-93
2023/03/10 04:18:46;;;;;;;36.33;8.02;;;14.30;99.90;;;;;;4996995;28;20483;-95
2023/03/10 04:21:16;;;;;;;40.40;7.60;;;14.30;99.90;;;;;;4981227;28;20034;-92
2023/03/10 04:23:45;;;;;;;36.13;7.35;;;14.30;99.90;;;;;;4997073;28;20026;-93
2023/03/10 04:26:14;;;;;;;32.60;7.97;;;14.30;99.90;;;;;;4998245;28;20113;-93
2023/03/10 04:28:44;;;;;;;46.22;8.90;;;14.40;99.90;;;;;;5001068;28;20508;-95
2023/03/10 04:31:17;;;;;;;37.72;9.30;;;14.40;99.90;;;;;;5001134;28;20407;-93
2023/03/10 04:33:47;;;;;;;46.20;8.35;;;14.40;99.90;;;;;;5001241;28;20030;-93
2023/03/10 04:36:17;;;;;;;36.22;7.93;;;14.40;99.90;;;;;;5000909;28;20081;-93
2023/03/10 04:38:47;;;;;;;35.22;7.95;;;14.40;99.90;;;;;;5000846;28;20080;-93
2023/03/10 04:41:13;;;;;;;39.40;9.38;;;14.40;99.90;;;;;;5013679;28;20438;-93
2023/03/10 04:43:44;;;;;;;39.22;7.93;;;14.40;99.90;;;;;;5017108;28;20053;-93
2023/03/10 04:46:12;;;;;;;33.42;8.80;;;14.40;99.90;;;;;;5017120;28;20064;-93
2023/03/10 04:48:38;;;;;;;35.40;7.93;;;14.40;99.90;;;;;;5017061;28;20121;-92
2023/03/10 04:51:08;;;;;;;22.38;7.18;;;14.40;99.90;;;;;;5016935;28;20033;-93
2023/03/10 04:53:40;;;;;;;31.75;7.88;;;14.40;99.90;;;;;;5017429;28;20053;-94
2023/03/10 04:56:07;;;;;;;26.77;7.75;;;14.40;99.90;;;;;;5000741;28;20372;-94
2023/03/10 04:58:36;;;;;;;32.03;8.57;;;14.40;99.90;;;;;;5013945;28;20505;-94
2023/03/10 05:01:16;;;;;;;29.48;6.20;;;14.30;99.90;;;;;;5013676;28;20034;-94
2023/03/10 05:03:50;;;;;;;33.30;7.22;;;14.30;99.90;;;;;;5012545;28;20054;-92
2023/03/10 05:06:21;;;;;;;31.60;6.22;;;14.30;99.90;;;;;;4997407;28;20391;-93
2023/03/10 05:09:03;;;;;;;32.80;7.13;;;14.30;99.90;;;;;;5011777;28;20092;-94
2023/03/10 05:11:32;;;;;;;25.65;6.50;;;14.30;99.90;;;;;;5013256;28;20050;-94
2023/03/10 05:13:58;;;;;;;24.92;6.30;;;14.30;99.90;;;;;;4997227;28;20030;-94
2023/03/10 05:16:25;;;;;;;35.67;8.13;;;14.30;99.90;;;;;;5013141;28;20065;-94
2023/03/10 05:18:53;;;;;;;19.77;6.60;;;14.30;99.90;;;;;;5005489;28;20026;-93
2023/03/10 05:21:24;;;;;;;25.15;5.88;;;14.30;99.90;;;;;;4981418;28;20117;-93
2023/03/10 05:23:53;;;;;;;20.48;6.40;;;14.30;99.90;;;;;;4980970;28;20511;-93
2023/03/10 05:26:21;;;;;;;23.77;6.43;;;14.30;99.90;;;;;;4996968;28;20030;-94
2023/03/10 05:28:47;;;;;;;33.60;7.13;;;14.30;99.90;;;;;;4980816;28;20031;-93
2023/03/10 05:31:24;;;;;;;27.88;7.93;;;14.40;99.90;;;;;;4997474;28;20026;-92
2023/03/10 05:33:58;;;;;;;23.75;7.55;;;14.40;99.90;;;;;;4997242;28;20041;-94
2023/03/10 05:36:25;;;;;;;25.92;8.27;;;14.40;99.90;;;;;;4980666;28;20030;-93
2023/03/10 05:38:52;;;;;;;34.63;9.15;;;14.40;99.90;;;;;;4995606;28;20108;-93
2023/03/10 05:41:20;;;;;;;26.23;8.02;;;14.50;99.90;;;;;;4999501;28;20042;-93
2023/03/10 05:43:51;;;;;;;28.85;8.23;;;14.40;99.90;;;;;;5015828;28;20045;-95
2023/03/10 05:46:19;;;;;;;35.15;8.10;;;14.50;99.90;;;;;;5015737;28;20041;-93
2023/03/10 05:48:51;;;;;;;28.52;8.15;;;14.40;99.90;;;;;;5015716;28;20033;-93
2023/03/10 05:51:19;;;;;;;30.23;8.30;;;14.50;99.90;;;;;;5015893;28;20057;-93
2023/03/10 05:53:46;;;;;;;28.48;8.10;;;14.50;99.90;;;;;;5015725;28;20194;-94
2023/03/10 05:56:19;;;;;;;23.80;8.13;;;14.40;99.90;;;;;;5015665;28;20054;-94
2023/03/10 05:58:52;;;;;;;33.20;8.52;;;14.50;99.90;;;;;;5015427;28;20030;-93
2023/03/10 06:01:23;;;;;;;34.42;9.02;;;14.50;99.90;;;;;;5015543;28;20034;-92
2023/03/10 06:03:50;;;;;;;28.13;8.20;;;14.40;99.90;;;;;;5015734;28;20221;-94
2023/03/10 06:06:16;;;;;;;22.48;8.05;;;14.50;99.90;;;;;;5015679;28;20454;-94
2023/03/10 06:08:43;;;;;;;31.35;8.40;;;14.50;99.90;;;;;;5015495;28;20025;-93
2023/03/10 06:11:10;;;;;;;33.85;8.05;;;14.50;99.90;;;;;;5015477;28;20034;-93
2023/03/10 06:13:37;;;;;;;37.13;7.90;;;14.50;99.90;;;;;;5015350;28;20034;-94
2023/03/10 06:16:05;;;;;;;29.27;7.32;;;14.50;99.90;;;;;;5015921;28;20057;-93
2023/03/10 06:18:33;;;;;;;35.15;7.97;;;14.60;99.90;;;;;;5015760;28;20030;-93
2023/03/10 06:21:03;;;;;;;29.08;8.75;;;14.50;99.90;;;;;;5015257;28;20026;-93
2023/03/10 06:23:29;;;;;;;30.13;8.25;;;14.50;99.90;;;;;;5016693;28;20399;-94
2023/03/10 06:26:05;;;;;;;30.20;7.63;;;14.60;99.90;;;;;;5015288;28;20376;-94
2023/03/10 06:28:35;;;;;;;30.35;8.13;;;14.60;99.90;;;;;;5015183;28;20487;-92
2023/03/10 06:31:04;;;;;;;21.88;6.85;;;14.70;99.90;;;;;;5014943;28;20116;-93
2023/03/10 06:33:31;;;;;;;26.48;6.90;;;14.70;99.90;;;;;;5015024;28;20030;-94
2023/03/10 06:35:58;;;;;;;23.20;7.00;;;14.70;99.90;;;;;;5015248;28;20036;-94
2023/03/10 06:38:27;;;;;;;22.02;6.70;;;14.70;99.90;;;;;;5014914;28;20026;-95
2023/03/10 06:40:54;;;;;;;26.20;6.82;;;14.70;99.90;;;;;;5001461;28;20436;-94
2023/03/10 06:43:21;;;;;;;22.45;8.07;;;14.70;99.90;;;;;;4995672;28;20465;-94
2023/03/10 06:45:48;;;;;;;35.28;7.72;;;14.70;99.90;;;;;;4995372;28;20030;-93
2023/03/10 06:48:15;;;;;;;19.38;6.82;;;14.70;99.90;;;;;;4995283;28;20404;-94
2023/03/10 06:50:47;;;;;;;26.50;7.30;;;14.80;99.90;;;;;;4995027;28;20026;-93
2023/03/10 06:53:16;;;;;;;24.75;7.60;;;14.80;99.90;;;;;;4995192;28;20022;-93
2023/03/10 06:55:43;;;;;;;27.27;7.38;;;14.80;99.90;;;;;;4995567;28;20030;-93
2023/03/10 06:58:09;;;;;;;28.42;8.63;;;14.90;99.90;;;;;;4982507;28;20064;-93
2023/03/10 07:00:37;;;;;;;25.02;7.57;;;15.00;99.90;;;;;;4998143;28;20426;-94
2023/03/10 07:03:04;;;;;;;27.90;8.10;;;15.10;99.90;;;;;;4998326;28;20442;-93
2023/03/10 07:05:31;;;;;;;26.15;8.07;;;15.10;99.90;;;;;;4998386;28;20021;-94
2023/03/10 07:07:57;;;;;;;39.45;7.93;;;15.10;99.90;;;;;;4998643;28;20068;-93
2023/03/10 07:10:24;;;;;;;28.52;7.88;;;15.20;99.90;;;;;;4998038;28;20022;-93
2023/03/10 07:12:53;;;;;;;28.08;7.80;;;15.20;99.90;;;;;;4998036;28;20048;-94
2023/03/10 07:15:21;;;;;;;34.25;8.80;;;15.20;99.90;;;;;;4997964;28;20514;-95
2023/03/10 07:17:48;;;;;;;27.48;7.75;;;15.30;99.90;;;;;;4997761;28;20033;-92
2023/03/10 07:20:15;;;;;;;27.48;7.60;;;15.30;99.90;;;;;;4998295;28;20080;-95
2023/03/10 07:22:42;;;;;;;24.33;8.00;;;15.40;99.90;;;;;;4998067;28;20053;-93
2023/03/10 07:25:09;;;;;;;33.30;9.00;;;15.50;99.90;;;;;;5005552;28;20026;-94
2023/03/10 07:27:35;;;;;;;38.50;15.50;;;15.50;99.90;;;;;;4998396;28;20026;-92
2023/03/10 07:30:03;;;;;;;31.58;15.05;;;15.60;99.90;;;;;;4996214;28;20030;-92
2023/03/10 07:32:29;;;;;;;36.05;14.38;;;15.80;99.90;;;;;;4997493;28;20026;-94
2023/03/10 07:34:56;;;;;;;28.48;11.93;;;15.70;99.90;;;;;;4997414;28;20030;-94
2023/03/10 07:37:22;;;;;;;29.08;10.75;;;15.80;99.90;;;;;;5014390;28;20022;-93
2023/03/10 07:39:49;;;;;;;28.13;10.57;;;16.00;99.90;;;;;;4997331;28;20062;-92
2023/03/10 07:42:15;;;;;;;30.23;9.75;;;16.10;99.90;;;;;;4997845;28;20479;-92
2023/03/10 07:44:42;;;;;;;26.23;9.25;;;16.20;99.90;;;;;;5013898;28;20045;-94
2023/03/10 07:47:09;;;;;;;25.58;9.88;;;16.20;99.90;;;;;;5013426;28;20025;-92
2023/03/10 07:49:36;;;;;;;24.67;9.90;;;16.40;99.90;;;;;;4997566;28;20545;-94
2023/03/10 07:52:03;;;;;;;23.25;8.90;;;16.40;99.90;;;;;;5013871;28;20103;-95
2023/03/10 07:54:29;;;;;;;25.02;8.88;;;16.50;99.90;;;;;;5013690;28;20037;-93
2023/03/10 07:56:56;;;;;;;21.63;9.45;;;16.30;99.90;;;;;;5013752;28;20373;-93
2023/03/10 07:59:23;;;;;;;26.88;9.68;;;16.50;99.90;;;;;;4981425;28;20037;-93
2023/03/10 08:01:49;;;;;;;20.50;9.50;;;16.50;99.90;;;;;;5013280;28;20028;-94
2023/03/10 08:04:16;;;;;;;19.65;9.15;;;16.60;99.90;;;;;;4981092;28;20030;-93
2023/03/10 08:06:43;;;;;;;27.23;10.23;;;16.60;99.90;;;;;;5013099;28;20029;-95
2023/03/10 08:09:10;;;;;;;26.10;9.93;;;16.60;99.90;;;;;;4996929;28;20037;-94
2023/03/10 08:11:37;;;;;;;22.35;9.15;;;16.70;99.90;;;;;;5013674;28;20022;-93
2023/03/10 08:14:03;;;;;;;23.95;9.98;;;16.70;99.90;;;;;;5013355;28;20034;-93
2023/03/10 08:16:30;;;;;;;23.70;10.30;;;16.80;99.90;;;;;;5013358;28;20038;-96
2023/03/10 08:18:56;;;;;;;29.58;10.13;;;16.70;99.90;;;;;;4997398;28;20030;-93
2023/03/10 08:21:23;;;;;;;26.52;10.57;;;16.80;99.90;;;;;;4997028;28;20022;-94
2023/03/10 08:23:52;;;;;;;20.05;9.68;;;17.00;99.90;;;;;;4996920;28;20053;-94
2023/03/10 08:26:19;;;;;;;21.98;10.18;;;17.00;99.90;;;;;;5013477;28;20433;-94
2023/03/10 08:28:46;;;;;;;26.17;10.45;;;17.20;99.90;;;;;;4996920;28;20034;-93
2023/03/10 08:31:18;;;;;;;26.38;10.20;;;17.10;99.90;;;;;;4997159;28;20092;-93
2023/03/10 08:33:46;;;;;;;18.23;10.73;;;17.20;99.90;;;;;;4996487;28;20030;-94
2023/03/10 08:36:17;;;;;;;23.52;10.20;;;17.00;99.90;;;;;;4996888;28;20079;-93
2023/03/10 08:38:45;;;;;;;22.13;10.55;;;17.00;99.90;;;;;;4996957;28;20471;-94
2023/03/10 08:41:27;;;;;;;23.02;10.23;;;17.20;99.90;;;;;;4996605;28;20046;-92
2023/03/10 08:43:56;;;;;;;21.85;11.40;;;17.30;99.90;;;;;;4996698;28;20388;-94
2023/03/10 08:46:24;;;;;;;26.00;11.80;;;17.30;99.90;;;;;;4997354;28;20045;-92
2023/03/10 08:48:51;;;;;;;29.13;10.68;;;17.20;99.90;;;;;;4993695;28;20030;-93
2023/03/10 08:51:18;;;;;;;25.30;11.07;;;17.10;99.90;;;;;;4961176;28;20023;-93
2023/03/10 08:53:48;;;;;;;27.17;10.82;;;17.10;99.90;;;;;;4977452;28;20030;-93
2023/03/10 08:56:16;;;;;;;27.27;11.15;;;17.20;99.90;;;;;;4961416;28;20048;-93
2023/03/10 08:58:43;;;;;;;29.58;11.48;;;17.20;99.90;;;;;;4961166;28;20026;-94
2023/03/10 09:01:11;;;;;;;20.15;11.05;;;17.50;99.90;;;;;;4960910;28;20030;-93
2023/03/10 09:03:39;;;;;;;18.95;11.05;;;17.70;99.90;;;;;;4961172;28;20034;-93
2023/03/10 09:06:07;;;;;;;24.80;11.55;;;17.90;99.90;;;;;;4961251;28;20050;-94
2023/03/10 09:08:34;;;;;;;19.10;11.80;;;18.20;99.90;;;;;;4961272;28;20447;-92
2023/03/10 09:11:01;;;;;;;28.35;12.60;;;18.20;99.90;;;;;;4961039;28;20063;-92
2023/03/10 09:13:28;;;;;;;24.08;12.88;;;18.10;99.90;;;;;;4962539;28;20113;-94
2023/03/10 09:15:54;;;;;;;21.15;12.20;;;18.00;99.90;;;;;;4996661;28;20038;-95
2023/03/10 09:18:21;;;;;;;29.92;12.98;;;17.90;99.90;;;;;;4996555;28;20023;-92
2023/03/10 09:20:48;;;;;;;29.20;13.30;;;18.20;99.90;;;;;;4996839;28;20480;-93
2023/03/10 09:23:17;;;;;;;27.05;13.20;;;18.20;99.90;;;;;;4964563;28;20065;-93
2023/03/10 09:25:43;;;;;;;19.55;13.10;;;18.50;99.90;;;;;;4964287;28;20026;-92
2023/03/10 09:28:11;;;;;;;18.02;13.10;;;18.60;99.90;;;;;;4996733;28;20222;-94
2023/03/10 09:30:39;;;;;;;28.50;14.40;;;18.90;99.90;;;;;;4996519;28;20030;-96
2023/03/10 09:33:18;;;;;;;18.75;13.07;;;18.70;99.90;;;;;;4983534;28;20488;-94
2023/03/10 09:35:46;;;;;;;25.33;13.73;;;18.90;99.90;;;;;;4980223;28;20045;-94
2023/03/10 09:45:17;;;;;;;24.80;14.38;;;19.40;99.90;;;;;;4950884;29;20100;-94
2023/03/10 09:51:50;;;;;;;20.85;14.02;;;19.30;99.90;;;;;;5064511;23;20591;-94
2023/03/10 09:54:25;;;;;;;20.10;14.32;;;19.10;99.90;;;;;;4980410;28;20042;-95
2023/03/10 09:56:54;;;;;;;15.85;13.93;;;19.10;99.90;;;;;;4964106;28;20040;-92
2023/03/10 09:59:30;;;;;;;22.23;14.85;;;19.30;99.90;;;;;;4964236;28;20030;-95
2023/03/10 10:02:01;;;;;;;20.02;14.52;;;19.40;99.90;;;;;;4963927;28;20034;-94
2023/03/10 10:04:35;;;;;;;27.52;15.43;;;19.60;99.90;;;;;;4964006;28;20042;-95
2023/03/10 10:07:11;;;;;;;20.17;15.30;;;19.70;99.90;;;;;;4964197;28;20399;-94
2023/03/10 10:09:56;;;;;;;18.67;14.85;;;19.50;99.90;;;;;;4983183;28;20565;-94
2023/03/10 10:12:25;;;;;;;25.88;15.40;;;19.60;99.90;;;;;;4963671;28;20030;-94
2023/03/10 10:15:15;;;;;;;18.15;15.23;;;19.90;99.90;;;;;;4963663;28;20046;-94
2023/03/10 10:18:00;;;;;;;20.63;16.50;;;20.00;99.90;;;;;;4963267;28;20026;-95
2023/03/10 10:20:34;;;;;;;20.13;16.30;;;20.20;99.90;;;;;;4963527;28;20097;-92
2023/03/10 10:23:00;;;;;;;23.55;17.08;;;20.20;99.90;;;;;;4963254;28;20385;-95
2023/03/10 10:25:36;;;;;;;20.77;17.00;;;20.30;99.90;;;;;;4962919;28;20030;-94
2023/03/10 10:28:15;;;;;;;18.52;16.17;;;20.10;99.90;;;;;;4963470;28;20121;-94
2023/03/10 10:30:42;;;;;;;19.25;16.88;;;19.90;99.90;;;;;;4963200;28;20036;-93
2023/03/10 10:33:12;;;;;;;18.58;16.55;;;20.20;99.90;;;;;;4963187;28;20448;-94
2023/03/10 10:35:42;;;;;;;19.60;17.35;;;20.30;99.90;;;;;;4962856;28;20038;-92
2023/03/10 10:38:14;;;;;;;20.27;17.25;;;20.70;99.90;;;;;;4963120;28;20121;-93
2023/03/10 10:41:06;;;;;;;20.10;16.08;;;20.60;99.90;;;;;;4963207;28;20034;-94
2023/03/10 10:43:44;;;;;;;19.50;16.55;;;20.80;99.90;;;;;;4964128;28;20057;-94
2023/03/10 10:46:14;;;;;;;17.83;16.13;;;20.90;99.90;;;;;;4962894;28;20125;-95
2023/03/10 10:48:46;;;;;;;18.67;16.67;;;21.00;99.90;;;;;;4963005;28;20026;-91
2023/03/10 10:51:28;;;;;;;19.33;16.90;;;20.90;99.90;;;;;;4967143;28;20056;-91
2023/03/10 10:54:30;;;;;;;19.90;17.10;;;20.80;99.90;;;;;;4982139;28;20038;-91
2023/03/10 10:56:59;;;;;;;21.30;18.88;;;20.70;99.90;;;;;;4982128;28;20026;-95
2023/03/10 10:59:34;;;;;;;19.92;17.85;;;20.60;99.90;;;;;;4981697;28;20025;-93
2023/03/10 11:02:18;;;;;;;20.70;18.63;;;20.50;99.90;;;;;;4994267;28;20030;-94
2023/03/10 11:04:48;;;;;;;19.10;17.25;;;20.40;99.90;;;;;;4994926;28;20480;-94
2023/03/10 11:07:25;;;;;;;19.13;17.27;;;20.50;99.90;;;;;;4994764;28;20034;-94
2023/03/10 11:09:56;;;;;;;18.63;16.70;;;20.50;99.90;;;;;;4994589;28;20034;-94
2023/03/10 11:12:56;;;;;;;18.90;16.90;;;20.70;99.90;;;;;;4996123;28;20488;-95
2023/03/10 11:15:35;;;;;;;18.55;16.90;;;20.70;99.90;;;;;;4926748;28;20052;-95
2023/03/10 11:18:43;;;;;;;18.73;17.15;;;20.70;99.90;;;;;;4982537;28;20034;-95
2023/03/10 11:21:27;;;;;;;19.95;17.92;;;20.90;99.90;;;;;;4923613;29;20050;-95
2023/03/10 11:24:42;;;;;;;19.40;17.55;;;20.80;99.90;;;;;;4923603;29;20159;-91
2023/03/10 11:27:18;;;;;;;22.33;17.88;;;21.00;99.90;;;;;;4921992;29;20035;-91
2023/03/10 11:30:32;;;;;;;19.70;17.73;;;21.20;99.90;;;;;;4924280;29;20035;-94
2023/03/10 11:33:22;;;;;;;19.48;17.77;;;21.20;99.90;;;;;;4847457;29;20037;-94
2023/03/10 11:35:53;;;;;;;19.95;18.10;;;21.10;99.90;;;;;;4879149;29;20080;-95
2023/03/10 11:38:41;;;;;;;19.60;17.83;;;20.90;99.90;;;;;;4864659;29;20115;-94
2023/03/10 11:41:15;;;;;;;19.23;17.52;;;20.80;99.90;;;;;;4864926;29;20136;-94
2023/03/10 11:44:10;;;;;;;20.15;18.10;;;20.90;99.90;;;;;;4864458;29;20037;-95
2023/03/10 11:46:59;;;;;;;19.23;17.35;;;21.00;99.90;;;;;;4883475;29;20044;-93
2023/03/10 11:49:37;;;;;;;19.35;17.70;;;21.10;99.90;;;;;;4881825;29;20500;-94
2023/03/10 11:52:13;;;;;;;18.50;17.20;;;21.20;99.90;;;;;;4867244;29;20049;-95
2023/03/10 11:54:53;;;;;;;19.90;18.27;;;21.20;99.90;;;;;;4880939;29;20057;-95
2023/03/10 11:57:24;;;;;;;19.77;17.92;;;21.00;99.90;;;;;;4898220;29;20490;-94
2023/03/10 12:00:03;;;;;;;19.17;17.67;;;20.90;99.90;;;;;;4900735;29;20514;-93
2023/03/10 12:02:58;;;;;;;19.08;17.45;;;20.70;99.90;;;;;;4883090;29;20120;-94
2023/03/10 12:05:27;;;;;;;19.50;17.73;;;20.80;99.90;;;;;;4883834;29;20036;-93
2023/03/10 12:07:59;;;;;;;18.90;17.40;;;21.00;99.90;;;;;;4985271;28;20030;-93
2023/03/10 12:10:27;;;;;;;19.27;17.58;;;21.40;99.90;;;;;;4981232;28;20034;-94
2023/03/10 12:12:55;;;;;;;19.55;17.73;;;21.40;99.90;;;;;;4997390;28;20080;-93
2023/03/10 12:15:31;;;;;;;19.83;18.05;;;21.30;99.90;;;;;;4981321;28;20041;-95
2023/03/10 12:17:58;;;;;;;18.70;16.95;;;21.40;99.90;;;;;;4981620;28;20399;-93
2023/03/10 12:20:31;;;;;;;19.55;17.63;;;21.50;99.90;;;;;;4981200;28;20113;-93
2023/03/10 12:23:23;;;;;;;19.27;17.85;;;21.60;99.90;;;;;;4981730;28;20445;-93
2023/03/10 12:25:50;;;;;;;19.05;17.60;;;21.80;99.90;;;;;;4981983;28;20037;-94
2023/03/10 12:28:17;;;;;;;18.45;17.17;;;21.70;99.90;;;;;;4982624;28;20024;-94
2023/03/10 12:31:03;;;;;;;18.35;16.95;;;21.60;99.90;;;;;;4981987;28;20061;-95
2023/03/10 12:33:33;;;;;;;19.00;17.45;;;21.60;99.90;;;;;;4980884;28;20113;-93
2023/03/10 12:36:31;;;;;;;18.48;17.17;;;21.50;99.90;;;;;;4981646;28;20030;-95
2023/03/10 12:38:59;;;;;;;18.40;17.10;;;21.60;99.90;;;;;;4981867;28;20030;-95
2023/03/10 12:41:25;;;;;;;18.67;17.20;;;21.60;99.90;;;;;;4981780;28;20084;-93
2023/03/10 12:43:51;;;;;;;18.02;16.65;;;21.50;99.90;;;;;;4982483;28;20033;-95
2023/03/10 12:46:41;;;;;;;18.25;16.92;;;21.60;99.90;;;;;;4982038;28;20073;-94
2023/03/10 12:49:25;;;;;;;18.55;17.10;;;21.70;99.90;;;;;;4986370;28;20037;-94
2023/03/10 12:52:21;;;;;;;18.60;17.20;;;21.70;99.90;;;;;;4984287;28;20050;-94
2023/03/10 12:54:50;;;;;;;18.33;16.85;;;21.90;99.90;;;;;;4979720;28;20074;-94
2023/03/10 12:57:40;;;;;;;18.23;16.95;;;21.60;99.90;;;;;;4948159;28;20121;-94
2023/03/10 13:00:39;;;;;;;18.20;17.10;;;21.50;99.90;;;;;;4963968;28;20492;-95
2023/03/10 13:03:09;;;;;;;17.80;16.70;;;21.30;99.90;;;;;;4962090;28;20111;-93
2023/03/10 13:05:42;;;;;;;17.73;16.40;;;21.30;99.90;;;;;;4945904;28;20034;-94
2023/03/10 13:08:19;;;;;;;18.50;16.87;;;21.20;99.90;;;;;;4962088;28;20026;-95
2023/03/10 13:10:53;;;;;;;17.50;16.30;;;20.90;99.90;;;;;;4962327;28;20027;-95
2023/03/10 13:28:41;;;;;;;17.77;16.48;;;21.30;99.90;;;;;;4994250;28;20026;-95
2023/03/10 13:31:26;;;;;;;18.35;16.92;;;21.30;99.90;;;;;;4965140;28;20033;-95